Time;durP1;ratioP1;P1;durP2;ratioP2;P2;SDS_P1;SDS_P2;PMS_P1;PMS_P2;Temp;Humidity;BMP_temperature;BMP_pressure;BME280_temperature;BME280_humidity;BME280_pressure;Samples;Min_cycle;Max_cycle;Signal;HPM_P1;HPM_P2
2023/09/21 00:00:19;;;;;;;3.50;1.80;;;;;;;;;;4689063;30;20049;-87
2023/09/21 00:02:49;;;;;;;4.53;2.70;;;;;;;;;;4703722;30;20106;-87
2023/09/21 00:05:23;;;;;;;5.75;2.10;;;;;;;;;;4688805;30;20143;-87
2023/09/21 00:07:50;;;;;;;2.15;1.95;;;;;;;;;;4688990;30;20053;-87
2023/09/21 00:10:18;;;;;;;2.55;2.10;;;17.60;1.00;;;;;;4689063;30;20053;-87
2023/09/21 00:12:44;;;;;;;3.55;2.00;;;;;;;;;;4703295;30;20142;-86
2023/09/21 00:15:21;;;;;;;4.50;2.53;;;;;;;;;;4703674;30;20084;-86
2023/09/21 00:17:50;;;;;;;3.70;2.40;;;;;;;;;;4675647;30;20095;-87
2023/09/21 00:21:01;;;;;;;3.15;2.08;;;;;;;;;;4703068;30;20064;-87
2023/09/21 00:23:06;;;;;;;4.88;2.17;;;;;;;;;;4701203;30;20099;-87
2023/09/21 00:25:32;;;;;;;3.50;2.00;;;;;;;;;;4702981;30;20103;-87
2023/09/21 00:27:58;;;;;;;6.57;2.00;;;;;;;;;;4718838;30;20056;-87
2023/09/21 00:30:25;;;;;;;3.20;2.03;;;;;;;;;;4702977;30;20053;-87
2023/09/21 00:32:51;;;;;;;2.75;2.28;;;;;;;;;;4689004;30;20045;-86
2023/09/21 00:35:18;;;;;;;7.45;2.30;;;;;;;;;;4718474;30;20057;-86
2023/09/21 00:37:46;;;;;;;6.15;2.65;;;;;;;;;;4703164;30;20138;-86
2023/09/21 00:40:18;;;;;;;2.75;2.20;;;;;;;;;;4718363;30;20049;-87
2023/09/21 00:42:45;;;;;;;3.70;2.20;;;;;;;;;;4702937;30;20104;-86
2023/09/21 00:45:12;;;;;;;3.00;2.05;;;;;;;;;;4702934;30;20048;-87
2023/09/21 00:47:45;;;;;;;3.53;2.53;;;;;;;;;;4688817;30;20060;-86
2023/09/21 00:50:12;;;;;;;2.45;2.00;;;17.80;1.00;;;;;;4702897;30;20507;-87
2023/09/21 00:52:40;;;;;;;4.22;2.33;;;;;;;;;;4688214;30;20068;-86
2023/09/21 00:55:10;;;;;;;2.00;1.85;;;17.70;1.00;;;;;;4702450;30;20060;-87
2023/09/21 00:57:36;;;;;;;3.20;2.22;;;;;;;;;;4688752;30;20052;-86
2023/09/21 01:00:10;;;;;;;3.30;2.10;;;;;;;;;;4702238;30;20089;-87
2023/09/21 01:02:38;;;;;;;4.25;1.90;;;;;;;;;;4688248;30;20131;-87
2023/09/21 01:05:05;;;;;;;6.20;2.15;;;;;;;;;;4702587;30;20049;-86
2023/09/21 01:07:32;;;;;;;3.60;2.17;;;;;;;;;;4688057;30;20045;-86
2023/09/21 01:09:58;;;;;;;2.70;1.83;;;;;;;;;;4687883;30;20052;-86
2023/09/21 01:12:27;;;;;;;5.82;1.90;;;;;;;;;;4702480;30;20045;-87
2023/09/21 01:15:08;;;;;;;3.15;2.20;;;;;;;;;;4688126;30;20052;-87
2023/09/21 01:17:35;;;;;;;5.88;2.83;;;;;;;;;;4702422;30;20060;-86
2023/09/21 01:20:13;;;;;;;3.22;2.17;;;;;;;;;;4717739;30;20056;-86
2023/09/21 01:22:40;;;;;;;3.17;1.80;;;18.00;1.00;;;;;;4702292;30;20064;-86
2023/09/21 01:25:06;;;;;;;4.57;1.98;;;;;;;;;;4717452;30;20061;-88
2023/09/21 01:27:34;;;;;;;3.03;2.03;;;;;;;;;;4702355;30;20412;-86
2023/09/21 01:30:00;;;;;;;3.33;2.22;;;;;;;;;;4687675;30;20139;-86
2023/09/21 01:32:26;;;;;;;4.25;1.85;;;;;;;;;;4688065;30;20065;-86
2023/09/21 01:34:52;;;;;;;3.45;1.90;;;;;;;;;;4717353;30;20141;-87
2023/09/21 01:37:21;;;;;;;4.50;1.75;;;;;;;;;;4687231;30;20057;-87
2023/09/21 01:39:48;;;;;;;3.95;2.00;;;;;;;;;;4673507;30;20056;-86
2023/09/21 01:42:15;;;;;;;4.93;1.88;;;;;;;;;;4701594;30;20507;-86
2023/09/21 01:44:41;;;;;;;2.10;1.60;;;;;;;;;;4701652;30;20146;-86
2023/09/21 01:47:09;;;;;;;3.95;1.90;;;;;;;;;;4687591;30;20164;-86
2023/09/21 01:49:35;;;;;;;4.50;2.38;;;;;;;;;;4701893;30;20503;-85
2023/09/21 01:52:02;;;;;;;3.58;2.15;;;;;;;;;;4687423;30;20060;-86
2023/09/21 01:54:28;;;;;;;2.25;1.80;;;;;;;;;;4701280;30;20144;-86
2023/09/21 01:56:55;;;;;;;4.78;1.92;;;;;;;;;;4687274;30;20045;-86
2023/09/21 01:59:21;;;;;;;2.53;2.08;;;;;;;;;;4687338;30;20049;-86
2023/09/21 02:01:48;;;;;;;2.92;2.20;;;;;;;;;;4701769;30;20049;-85
2023/09/21 02:04:14;;;;;;;7.57;2.88;;;;;;;;;;4687138;30;20049;-86
2023/09/21 02:06:41;;;;;;;2.55;2.00;;;;;;;;;;4717316;30;20063;-86
2023/09/21 02:09:09;;;;;;;2.00;1.70;;;;;;;;;;4701555;30;20149;-85
2023/09/21 02:11:35;;;;;;;3.13;1.85;;;;;;;;;;4701637;30;20061;-86
2023/09/21 02:14:01;;;;;;;4.57;2.08;;;;;;;;;;4702091;30;20057;-86
2023/09/21 02:16:27;;;;;;;3.75;2.20;;;;;;;;;;4717166;30;20084;-86
2023/09/21 02:18:53;;;;;;;4.97;1.83;;;;;;;;;;4686819;30;20510;-85
2023/09/21 02:21:19;;;;;;;2.17;1.60;;;;;;;;;;4672651;30;20057;-85
2023/09/21 02:23:46;;;;;;;2.40;2.10;;;;;;;;;;4716996;30;20186;-86
2023/09/21 02:26:12;;;;;;;2.63;2.08;;;;;;;;;;4700968;30;20067;-86
2023/09/21 02:28:38;;;;;;;2.60;1.88;;;;;;;;;;4686963;30;20500;-86
2023/09/21 02:31:12;;;;;;;2.75;2.13;;;18.30;1.00;;;;;;4701316;30;20145;-85
2023/09/21 02:33:42;;;;;;;2.92;1.95;;;;;;;;;;4686758;30;20490;-86
2023/09/21 02:36:19;;;;;;;3.58;2.22;;;18.10;1.00;;;;;;4687249;30;20092;-85
2023/09/21 02:38:45;;;;;;;4.28;2.35;;;;;;;;;;4686698;30;20057;-86
2023/09/21 02:41:11;;;;;;;3.20;1.85;;;;;;;;;;4701150;30;20111;-86
2023/09/21 02:43:38;;;;;;;12.98;2.97;;;;;;;;;;4686603;30;20555;-86
2023/09/21 02:46:04;;;;;;;3.70;2.10;;;;;;;;;;4686427;30;20496;-87
2023/09/21 02:48:31;;;;;;;5.78;2.28;;;;;;;;;;4716619;30;20053;-87
2023/09/21 02:50:58;;;;;;;4.03;1.92;;;;;;;;;;4686455;30;20530;-86
2023/09/21 02:53:24;;;;;;;8.18;2.15;;;;;;;;;;4701400;30;20053;-87
2023/09/21 02:55:52;;;;;;;2.72;1.88;;;18.20;1.00;;;;;;4686543;30;20530;-87
2023/09/21 02:58:19;;;;;;;4.30;1.92;;;;;;;;;;4716698;30;20126;-86
2023/09/21 03:00:46;;;;;;;7.70;2.35;;;;;;;;;;4686614;30;20057;-87
2023/09/21 03:03:17;;;;;;;3.78;2.22;;;18.30;1.00;;;;;;4686774;30;20103;-86
2023/09/21 03:05:47;;;;;;;4.60;2.30;;;18.40;1.00;;;;;;4687111;30;20140;-86
2023/09/21 03:08:14;;;;;;;1.95;1.75;;;;;;;;;;4716714;30;20061;-86
2023/09/21 03:10:44;;;;;;;4.90;2.92;;;;;;;;;;4716687;30;20130;-86
2023/09/21 03:13:17;;;;;;;2.08;1.77;;;;;;;;;;4716699;30;20346;-87
2023/09/21 03:15:50;;;;;;;2.35;1.70;;;;;;;;;;4687795;30;20061;-86
2023/09/21 03:18:16;;;;;;;3.65;2.20;;;;;;;;;;4700873;30;20091;-87
2023/09/21 03:20:43;;;;;;;2.55;2.00;;;;;;;;;;4701113;30;20140;-87
2023/09/21 03:23:10;;;;;;;3.78;1.98;;;;;;;;;;4700910;30;20122;-87
2023/09/21 03:25:43;;;;;;;9.85;2.67;;;18.40;1.00;;;;;;4700732;30;20053;-87
2023/09/21 03:28:13;;;;;;;4.47;2.20;;;18.40;1.00;;;;;;4701378;30;20507;-88
2023/09/21 03:30:42;;;;;;;4.50;1.85;;;;;;;;;;4686705;30;20118;-86
2023/09/21 03:33:09;;;;;;;6.13;1.95;;;;;;;;;;4690291;30;20079;-86
2023/09/21 03:35:37;;;;;;;4.88;2.55;;;;;;;;;;4719448;30;20188;-86
2023/09/21 03:38:06;;;;;;;9.40;2.25;;;;;;;;;;4689585;30;20472;-86
2023/09/21 03:40:32;;;;;;;4.13;2.65;;;;;;;;;;4690145;30;20061;-87
2023/09/21 03:42:59;;;;;;;4.05;1.90;;;;;;;;;;4719914;30;20056;-87
2023/09/21 03:45:26;;;;;;;1.98;1.70;;;;;;;;;;4689983;30;20393;-86
2023/09/21 03:47:56;;;;;;;5.00;2.25;;;;;;;;;;4703851;30;20057;-86
2023/09/21 03:50:27;;;;;;;3.50;1.77;;;;;;;;;;4703710;30;20052;-87
2023/09/21 03:52:54;;;;;;;2.38;2.00;;;;;;;;;;4703562;30;20065;-86
2023/09/21 03:55:21;;;;;;;5.65;1.80;;;;;;;;;;4719266;30;20053;-86
2023/09/21 03:57:47;;;;;;;3.38;2.00;;;;;;;;;;4703643;30;20388;-86
2023/09/21 04:00:29;;;;;;;3.10;2.15;;;18.20;1.00;;;;;;4689245;30;20111;-86
2023/09/21 04:02:59;;;;;;;5.18;2.00;;;18.50;1.00;;;;;;4690466;30;20523;-87
2023/09/21 04:05:31;;;;;;;2.78;1.85;;;18.40;1.00;;;;;;4703307;30;20518;-86
2023/09/21 04:07:58;;;;;;;2.97;1.83;;;18.20;1.00;;;;;;4703551;30;20522;-87
2023/09/21 04:10:24;;;;;;;3.10;2.15;;;;;;;;;;4703545;30;20057;-86
2023/09/21 04:12:54;;;;;;;2.05;1.65;;;;;;;;;;4689159;30;20056;-86
2023/09/21 04:15:21;;;;;;;4.03;1.65;;;;;;;;;;4703707;30;20065;-86
2023/09/21 04:17:47;;;;;;;5.45;1.90;;;;;;;;;;4688848;30;20570;-86
2023/09/21 04:20:15;;;;;;;4.63;2.50;;;;;;;;;;4703229;30;20045;-86
2023/09/21 04:22:42;;;;;;;3.15;2.15;;;;;;;;;;4703285;30;20415;-86
2023/09/21 04:25:09;;;;;;;2.88;1.98;;;18.40;1.00;;;;;;4688384;30;20049;-87
2023/09/21 04:27:40;;;;;;;2.50;2.10;;;;;;;;;;4703135;30;20052;-86
2023/09/21 04:30:08;;;;;;;3.20;2.17;;;18.30;1.00;;;;;;4688895;30;20061;-87
2023/09/21 04:32:38;;;;;;;3.65;2.05;;;;;;;;;;4703271;30;20064;-87
2023/09/21 04:35:05;;;;;;;2.42;2.10;;;;;;;;;;4688740;30;20140;-87
2023/09/21 04:37:33;;;;;;;2.75;2.47;;;18.20;1.00;;;;;;4688411;30;20099;-87
2023/09/21 04:39:59;;;;;;;4.20;1.77;;;;;;;;;;4702779;30;20088;-86
2023/09/21 04:42:28;;;;;;;3.53;2.22;;;18.20;1.00;;;;;;4687702;30;20115;-87
2023/09/21 04:44:55;;;;;;;5.10;2.47;;;;;;;;;;4702964;30;20056;-87
2023/09/21 04:47:23;;;;;;;3.95;2.00;;;;;;;;;;4718540;30;20057;-87
2023/09/21 04:49:52;;;;;;;2.85;1.90;;;;;;;;;;4702660;30;20496;-87
2023/09/21 04:52:18;;;;;;;2.35;2.05;;;;;;;;;;4688304;30;20482;-86
2023/09/21 04:54:49;;;;;;;3.90;1.80;;;;;;;;;;4702095;30;20057;-87
2023/09/21 04:57:15;;;;;;;2.17;2.00;;;;;;;;;;4688028;30;20425;-87
2023/09/21 04:59:41;;;;;;;3.08;1.88;;;;;;;;;;4718478;30;20145;-87
2023/09/21 05:02:09;;;;;;;2.85;1.77;;;;;;;;;;4702495;30;20075;-86
2023/09/21 05:04:36;;;;;;;3.05;1.98;;;;;;;;;;4703233;30;20075;-86
2023/09/21 05:07:02;;;;;;;3.35;2.47;;;;;;;;;;4703428;30;20051;-87
2023/09/21 05:09:28;;;;;;;4.47;2.03;;;;;;;;;;4718632;30;20064;-87
2023/09/21 05:11:55;;;;;;;5.60;1.95;;;;;;;;;;4688436;30;20255;-87
2023/09/21 05:14:21;;;;;;;2.78;2.22;;;;;;;;;;4718409;30;20060;-88
2023/09/21 05:16:48;;;;;;;2.88;1.88;;;;;;;;;;4674000;30;20136;-87
2023/09/21 05:19:15;;;;;;;3.20;2.13;;;;;;;;;;4702546;30;20060;-86
2023/09/21 05:21:41;;;;;;;2.67;2.08;;;;;;;;;;4687780;30;20110;-86
2023/09/21 05:24:07;;;;;;;6.65;2.03;;;;;;;;;;4687853;30;20507;-86
2023/09/21 05:26:33;;;;;;;5.32;2.00;;;;;;;;;;4673512;30;20049;-87
2023/09/21 05:28:59;;;;;;;4.75;2.35;;;;;;;;;;4702082;30;20053;-86
2023/09/21 05:31:25;;;;;;;4.22;1.90;;;;;;;;;;4702378;30;20140;-87
2023/09/21 05:33:52;;;;;;;3.72;2.35;;;;;;;;;;4688039;30;20071;-87
2023/09/21 05:36:18;;;;;;;2.85;2.30;;;;;;;;;;4717528;30;20114;-86
2023/09/21 05:38:44;;;;;;;4.53;1.95;;;;;;;;;;4687179;30;20049;-87
2023/09/21 05:41:10;;;;;;;5.13;2.22;;;;;;;;;;4717334;30;20064;-87
2023/09/21 05:43:36;;;;;;;4.88;1.80;;;;;;;;;;4717114;30;20071;-87
2023/09/21 05:46:03;;;;;;;4.28;1.98;;;;;;;;;;4687126;30;20056;-86
2023/09/21 05:48:29;;;;;;;2.20;1.83;;;;;;;;;;4717165;30;20057;-87
2023/09/21 05:50:55;;;;;;;5.30;2.22;;;;;;;;;;4672813;30;20053;-87
2023/09/21 05:53:22;;;;;;;3.42;2.20;;;;;;;;;;4686803;30;20060;-87
2023/09/21 05:55:48;;;;;;;4.75;2.20;;;;;;;;;;4701251;30;20115;-87
2023/09/21 05:58:15;;;;;;;3.20;1.90;;;;;;;;;;4673318;30;20045;-86
2023/09/21 06:00:41;;;;;;;3.33;2.25;;;;;;;;;;4686887;30;20061;-87
2023/09/21 06:03:07;;;;;;;2.00;1.65;;;;;;;;;;4687170;30;20049;-87
2023/09/21 06:05:33;;;;;;;2.65;1.88;;;;;;;;;;4687196;30;20060;-87
2023/09/21 06:07:59;;;;;;;2.65;2.17;;;;;;;;;;4686930;30;20093;-86
2023/09/21 06:10:30;;;;;;;14.27;3.28;;;;;;;;;;4687016;30;20060;-88
2023/09/21 06:12:59;;;;;;;3.20;2.42;;;;;;;;;;4686848;30;20049;-87
2023/09/21 06:15:26;;;;;;;2.83;1.83;;;;;;;;;;4672704;30;20045;-88
2023/09/21 06:17:52;;;;;;;4.30;2.53;;;;;;;;;;4673050;30;20542;-86
2023/09/21 06:20:19;;;;;;;4.30;1.67;;;;;;;;;;4672352;30;20059;-87
2023/09/21 06:22:46;;;;;;;5.93;2.05;;;;;;;;;;4686901;30;20059;-86
2023/09/21 06:25:12;;;;;;;6.10;2.45;;;;;;;;;;4686215;30;20503;-87
2023/09/21 06:27:39;;;;;;;6.15;2.25;;;;;;;;;;4686591;30;20107;-87
2023/09/21 06:30:05;;;;;;;3.15;2.45;;;;;;;;;;4672712;30;20408;-87
2023/09/21 06:32:31;;;;;;;3.97;2.00;;;;;;;;;;4672352;30;20119;-87
2023/09/21 06:34:59;;;;;;;3.92;1.98;;;;;;;;;;4672535;30;20136;-86
2023/09/21 06:37:30;;;;;;;3.28;2.58;;;;;;;;;;4687013;30;20085;-87
2023/09/21 06:39:56;;;;;;;3.72;2.50;;;;;;;;;;4687246;30;20094;-86
2023/09/21 06:42:22;;;;;;;3.42;1.88;;;;;;;;;;4700933;30;20131;-86
2023/09/21 06:44:54;;;;;;;2.88;2.30;;;;;;;;;;4700750;30;20136;-87
2023/09/21 06:47:21;;;;;;;7.78;2.00;;;;;;;;;;4687073;30;20587;-87
2023/09/21 06:49:48;;;;;;;6.70;2.10;;;;;;;;;;4700581;30;20211;-87
2023/09/21 06:52:14;;;;;;;3.33;2.17;;;;;;;;;;4700645;30;20152;-87
2023/09/21 06:54:40;;;;;;;2.17;1.98;;;;;;;;;;4685912;30;20057;-87
2023/09/21 06:57:08;;;;;;;2.53;2.05;;;;;;;;;;4716212;30;20057;-87
2023/09/21 06:59:38;;;;;;;6.75;2.55;;;17.80;1.00;;;;;;4716261;30;20053;-87
2023/09/21 07:02:07;;;;;;;2.72;2.10;;;;;;;;;;4700271;30;20099;-86
2023/09/21 07:04:36;;;;;;;3.47;2.97;;;;;;;;;;4672290;30;20049;-87
2023/09/21 07:07:04;;;;;;;2.45;1.98;;;;;;;;;;4690035;30;20053;-87
2023/09/21 07:09:31;;;;;;;3.47;2.30;;;;;;;;;;4689753;30;20485;-87
2023/09/21 07:11:57;;;;;;;2.75;2.15;;;;;;;;;;4704178;30;20057;-85
2023/09/21 07:14:23;;;;;;;6.10;2.00;;;;;;;;;;4719430;30;20570;-86
2023/09/21 07:16:49;;;;;;;4.47;2.65;;;;;;;;;;4703905;30;20119;-86
2023/09/21 07:19:15;;;;;;;11.23;2.42;;;;;;;;;;4703825;30;20508;-86
2023/09/21 07:21:41;;;;;;;3.30;2.30;;;;;;;;;;4704057;30;20053;-87
2023/09/21 07:24:08;;;;;;;7.97;2.65;;;;;;;;;;4719573;30;20484;-86
2023/09/21 07:26:34;;;;;;;3.15;2.50;;;;;;;;;;4674880;30;20049;-86
2023/09/21 07:29:05;;;;;;;10.65;2.55;;;17.40;1.00;;;;;;4703566;30;20053;-86
2023/09/21 07:31:33;;;;;;;5.22;2.55;;;;;;;;;;4689694;30;20057;-86
2023/09/21 07:34:02;;;;;;;5.10;2.20;;;17.60;1.00;;;;;;4703955;30;20142;-85
2023/09/21 07:36:28;;;;;;;3.33;2.35;;;;;;;;;;4674972;30;20060;-86
2023/09/21 07:38:55;;;;;;;6.45;2.50;;;17.50;1.00;;;;;;4674929;30;20056;-86
2023/09/21 07:41:22;;;;;;;5.25;2.25;;;;;;;;;;4674780;30;20053;-86
2023/09/21 07:43:48;;;;;;;3.45;2.40;;;;;;;;;;4688962;30;20059;-86
2023/09/21 07:46:14;;;;;;;2.42;2.22;;;17.50;1.00;;;;;;4674945;30;20199;-86
2023/09/21 07:48:41;;;;;;;4.47;2.58;;;;;;;;;;4703873;30;20140;-88
2023/09/21 07:51:08;;;;;;;5.75;2.63;;;17.60;1.00;;;;;;4675563;30;20096;-87
2023/09/21 07:53:35;;;;;;;3.75;2.13;;;;;;;;;;4689564;30;20061;-88
2023/09/21 07:56:04;;;;;;;3.38;2.67;;;17.40;1.00;;;;;;4689060;30;20057;-86
2023/09/21 07:58:30;;;;;;;4.55;2.60;;;;;;;;;;4703435;30;20053;-87
2023/09/21 08:00:56;;;;;;;6.57;2.45;;;;;;;;;;4674681;30;20110;-87
2023/09/21 08:03:26;;;;;;;5.57;2.53;;;;;;;;;;4703858;30;20052;-88
2023/09/21 08:05:55;;;;;;;5.70;3.30;;;17.40;1.00;;;;;;4676322;30;20056;-88
2023/09/21 08:08:24;;;;;;;4.68;2.55;;;;;;;;;;4690277;30;20056;-89
2023/09/21 08:10:51;;;;;;;3.05;2.10;;;;;;;;;;4689174;30;20057;-88
2023/09/21 08:13:17;;;;;;;3.15;2.45;;;;;;;;;;4689051;30;20049;-88
2023/09/21 08:15:43;;;;;;;5.32;2.80;;;;;;;;;;4674862;30;20045;-88
2023/09/21 08:18:12;;;;;;;1.38;1.17;;;;;;;;;;4687998;30;20049;-85
2023/09/21 08:20:41;;;;;;;0.82;0.80;;;;;;;;;;4702803;30;20091;-86
2023/09/21 08:23:08;;;;;;;2.45;1.08;;;;;;;;;;4702761;30;20427;-87
2023/09/21 08:25:35;;;;;;;1.42;0.90;;;16.60;1.00;;;;;;4688190;30;20053;-88
2023/09/21 08:28:03;;;;;;;0.95;0.70;;;;;;;;;;4702719;30;20515;-85
2023/09/21 08:30:29;;;;;;;1.17;0.80;;;;;;;;;;4674817;30;20560;-89
2023/09/21 08:32:55;;;;;;;2.25;0.73;;;;;;;;;;4688417;30;20063;-89
2023/09/21 08:35:21;;;;;;;1.17;0.95;;;;;;;;;;4688328;30;20049;-87
2023/09/21 08:37:50;;;;;;;2.03;0.90;;;;;;;;;;4688442;30;20694;-86
2023/09/21 08:40:16;;;;;;;0.70;0.70;;;;;;;;;;4674194;30;20049;-86
2023/09/21 08:42:44;;;;;;;1.13;1.02;;;16.30;1.00;;;;;;4674287;30;20100;-89
2023/09/21 08:45:11;;;;;;;2.20;1.05;;;;;;;;;;4702609;30;20056;-89
2023/09/21 08:47:41;;;;;;;1.48;0.80;;;;;;;;;;4688752;30;20135;-89
2023/09/21 08:50:09;;;;;;;0.73;0.70;;;;;;;;;;4688644;30;20041;-89
2023/09/21 08:52:36;;;;;;;1.33;0.90;;;;;;;;;;4674466;30;20061;-89
2023/09/21 08:55:02;;;;;;;2.05;0.98;;;;;;;;;;4701617;30;20103;-87
2023/09/21 08:57:30;;;;;;;2.38;1.10;;;;;;;;;;4688075;30;20101;-86
2023/09/21 08:59:58;;;;;;;1.58;1.00;;;;;;;;;;4688057;30;20053;-88
2023/09/21 09:02:24;;;;;;;2.50;0.70;;;;;;;;;;4687745;30;20471;-88
2023/09/21 09:04:53;;;;;;;1.75;1.15;;;;;;;;;;4701997;30;20052;-87
2023/09/21 09:07:19;;;;;;;3.53;1.15;;;;;;;;;;4687762;30;20063;-85
2023/09/21 09:09:48;;;;;;;2.03;0.93;;;;;;;;;;4687692;30;20401;-85
2023/09/21 09:12:21;;;;;;;2.30;1.20;;;;;;;;;;4702045;30;20476;-86
2023/09/21 09:14:48;;;;;;;0.93;0.93;;;;;;;;;;4687834;30;20051;-86
2023/09/21 09:17:15;;;;;;;1.58;1.23;;;16.20;1.00;;;;;;4701938;30;20507;-87
2023/09/21 09:19:41;;;;;;;1.45;1.13;;;;;;;;;;4702301;30;20045;-87
2023/09/21 09:22:10;;;;;;;2.65;1.17;;;;;;;;;;4687518;30;20053;-86
2023/09/21 09:24:37;;;;;;;1.52;1.08;;;;;;;;;;4686942;30;20578;-86
2023/09/21 09:27:03;;;;;;;5.15;1.17;;;;;;;;;;4673541;30;20053;-89
2023/09/21 09:29:30;;;;;;;1.05;0.95;;;;;;;;;;4701935;30;20045;-86
2023/09/21 09:31:56;;;;;;;1.70;1.10;;;;;;;;;;4687768;30;20500;-87
2023/09/21 09:34:22;;;;;;;1.52;1.13;;;;;;;;;;4688281;30;20053;-87
2023/09/21 09:36:52;;;;;;;0.90;0.80;;;;;;;;;;4673744;30;20057;-87
2023/09/21 09:39:24;;;;;;;1.48;0.70;;;;;;;;;;4688098;30;20057;-88
2023/09/21 09:41:51;;;;;;;0.95;0.90;;;;;;;;;;4701594;30;20210;-88
2023/09/21 09:44:24;;;;;;;1.00;0.95;;;;;;;;;;4701636;30;20053;-88
2023/09/21 09:46:57;;;;;;;1.00;0.90;;;;;;;;;;4687409;30;20057;-87
2023/09/21 09:49:28;;;;;;;0.98;0.90;;;15.80;1.00;;;;;;4701602;30;20157;-87
2023/09/21 09:51:56;;;;;;;1.02;0.90;;;15.70;1.00;;;;;;4687327;30;20048;-87
2023/09/21 09:54:26;;;;;;;1.95;0.88;;;;;;;;;;4686703;30;20058;-87
2023/09/21 09:56:52;;;;;;;1.17;0.85;;;;;;;;;;4686596;30;20067;-88
2023/09/21 09:59:20;;;;;;;2.08;1.05;;;;;;;;;;4686905;30;20140;-87
2023/09/21 10:01:47;;;;;;;1.80;1.15;;;;;;;;;;4701119;30;20057;-88
2023/09/21 10:04:14;;;;;;;1.50;1.08;;;;;;;;;;4686991;30;20135;-88
2023/09/21 10:06:41;;;;;;;4.10;1.10;;;;;;;;;;4673108;30;20132;-88
2023/09/21 10:09:13;;;;;;;1.88;0.70;;;15.90;1.00;;;;;;4687043;30;20092;-87
2023/09/21 10:11:46;;;;;;;1.88;1.23;;;15.70;1.00;;;;;;4686809;30;20615;-87
2023/09/21 10:14:16;;;;;;;0.80;0.80;;;;;;;;;;4686897;30;20056;-87
2023/09/21 10:16:49;;;;;;;1.27;0.93;;;;;;;;;;4672715;30;20056;-87
2023/09/21 10:19:16;;;;;;;1.65;0.73;;;;;;;;;;4686723;30;20045;-87
2023/09/21 10:21:45;;;;;;;4.63;1.20;;;;;;;;;;4686561;30;20057;-87
2023/09/21 10:24:16;;;;;;;2.92;1.00;;;;;;;;;;4686531;30;20053;-88
2023/09/21 10:26:52;;;;;;;1.08;1.00;;;;;;;;;;4686224;30;20127;-86
2023/09/21 10:29:22;;;;;;;0.80;0.80;;;;;;;;;;4686915;30;20053;-86
2023/09/21 10:31:54;;;;;;;1.75;0.75;;;;;;;;;;4686546;30;20052;-86
2023/09/21 10:34:23;;;;;;;0.77;0.77;;;;;;;;;;4687144;30;20570;-87
2023/09/21 10:36:56;;;;;;;1.70;0.88;;;;;;;;;;4700930;30;20163;-88
2023/09/21 10:39:26;;;;;;;1.03;0.77;;;15.80;1.00;;;;;;4686422;30;20053;-88
2023/09/21 10:42:08;;;;;;;0.80;0.80;;;16.10;1.00;;;;;;4672153;30;20049;-88
2023/09/21 10:44:59;;;;;;;1.40;0.80;;;16.00;1.00;;;;;;4686264;30;20045;-86
2023/09/21 10:47:29;;;;;;;1.90;0.90;;;15.90;1.00;;;;;;4684286;30;20061;-86
2023/09/21 10:50:04;;;;;;;1.67;1.10;;;;;;;;;;4700798;30;20057;-89
2023/09/21 10:52:31;;;;;;;0.98;0.77;;;;;;;;;;4700556;30;20060;-90
2023/09/21 10:54:57;;;;;;;0.80;0.80;;;;;;;;;;4685883;30;20060;-89
2023/09/21 10:57:24;;;;;;;2.45;1.00;;;;;;;;;;4686377;30;20060;-89
2023/09/21 10:59:52;;;;;;;0.75;0.60;;;;;;;;;;4700542;30;20140;-87
2023/09/21 11:02:18;;;;;;;1.33;0.93;;;;;;;;;;4686275;30;20053;-88
2023/09/21 11:04:45;;;;;;;1.00;0.90;;;;;;;;;;4686665;30;20068;-88
2023/09/21 11:07:14;;;;;;;1.02;0.80;;;;;;;;;;4686718;30;20064;-86
2023/09/21 11:09:43;;;;;;;0.80;0.63;;;16.10;1.00;;;;;;4686695;30;20468;-87
2023/09/21 11:12:13;;;;;;;1.05;0.95;;;;;;;;;;4686048;30;20060;-86
2023/09/21 11:14:43;;;;;;;0.70;0.60;;;;;;;;;;4672271;30;20103;-86
2023/09/21 11:17:11;;;;;;;1.98;0.80;;;16.10;1.00;;;;;;4686351;30;20092;-86
2023/09/21 11:19:38;;;;;;;1.30;0.82;;;;;;;;;;4672245;30;20057;-86
2023/09/21 11:22:05;;;;;;;1.23;0.77;;;;;;;;;;4686052;30;20064;-86
2023/09/21 11:24:32;;;;;;;2.38;1.20;;;;;;;;;;4685610;30;20146;-87
2023/09/21 11:26:59;;;;;;;1.00;0.90;;;;;;;;;;4700362;30;20143;-86
2023/09/21 11:29:29;;;;;;;1.05;0.93;;;16.10;1.00;;;;;;4672136;30;20136;-86
2023/09/21 11:31:55;;;;;;;0.80;0.80;;;;;;;;;;4685815;30;20053;-86
2023/09/21 11:34:21;;;;;;;1.10;0.80;;;;;;;;;;4685866;30;20057;-85
2023/09/21 11:36:50;;;;;;;1.65;1.48;;;16.00;1.00;;;;;;4686117;30;20057;-89
2023/09/21 11:39:17;;;;;;;2.05;0.90;;;;;;;;;;4686012;30;20541;-89
2023/09/21 11:41:43;;;;;;;0.88;0.82;;;;;;;;;;4685642;30;20057;-89
2023/09/21 11:44:11;;;;;;;1.85;0.70;;;16.30;1.00;;;;;;4685923;30;20053;-89
2023/09/21 11:46:40;;;;;;;1.85;0.82;;;16.40;1.00;;;;;;4685938;30;20053;-88
2023/09/21 11:49:06;;;;;;;1.45;1.30;;;;;;;;;;4700442;30;20549;-88
2023/09/21 11:51:33;;;;;;;0.95;0.85;;;;;;;;;;4700378;30;20464;-91
2023/09/21 11:54:00;;;;;;;1.20;0.80;;;;;;;;;;4688921;30;20049;-88
2023/09/21 11:56:26;;;;;;;1.75;0.80;;;;;;;;;;4689164;30;20065;-87
2023/09/21 11:58:58;;;;;;;0.73;0.73;;;;;;;;;;4689291;30;20057;-87
2023/09/21 12:01:28;;;;;;;0.80;0.80;;;;;;;;;;4675525;30;20488;-88
2023/09/21 12:03:56;;;;;;;2.50;0.85;;;;;;;;;;4689236;30;20511;-91
2023/09/21 12:06:27;;;;;;;1.35;1.00;;;;;;;;;;4689081;30;20503;-87
2023/09/21 12:08:57;;;;;;;1.38;1.13;;;;;;;;;;4703239;30;20507;-88
2023/09/21 12:11:24;;;;;;;1.48;0.88;;;;;;;;;;4689613;30;20089;-89
2023/09/21 12:13:50;;;;;;;1.85;0.80;;;;;;;;;;4674752;30;20049;-89
2023/09/21 12:16:16;;;;;;;1.10;0.60;;;;;;;;;;4689015;30;20055;-92
2023/09/21 12:18:43;;;;;;;1.35;1.00;;;;;;;;;;4675291;30;20057;-93
2023/09/21 12:21:09;;;;;;;1.08;0.98;;;;;;;;;;4674594;30;20106;-89
2023/09/21 12:23:36;;;;;;;0.82;0.60;;;;;;;;;;4689352;30;20764;-92
2023/09/21 12:26:02;;;;;;;2.70;1.00;;;;;;;;;;4688396;30;20057;-92
2023/09/21 12:28:28;;;;;;;0.93;0.82;;;;;;;;;;4689172;30;20049;-88
2023/09/21 12:30:54;;;;;;;0.80;0.80;;;;;;;;;;4688858;30;20512;-88
2023/09/21 12:33:20;;;;;;;0.98;0.75;;;;;;;;;;4689096;30;20470;-87
2023/09/21 12:35:47;;;;;;;1.55;0.80;;;;;;;;;;4674572;30;20503;-89
2023/09/21 12:38:13;;;;;;;0.60;0.60;;;;;;;;;;4703060;30;20120;-87
2023/09/21 12:40:40;;;;;;;3.17;0.80;;;;;;;;;;4674306;30;20049;-88
2023/09/21 12:43:08;;;;;;;2.15;1.02;;;;;;;;;;4673962;30;20447;-87
2023/09/21 12:45:34;;;;;;;1.00;0.73;;;;;;;;;;4674317;30;20060;-89
2023/09/21 12:48:07;;;;;;;0.60;0.60;;;;;;;;;;4688165;30;20528;-87
2023/09/21 12:50:33;;;;;;;1.42;0.80;;;;;;;;;;4688473;30;20049;-87
2023/09/21 12:52:59;;;;;;;0.98;0.75;;;;;;;;;;4688437;30;20098;-86
2023/09/21 12:55:25;;;;;;;1.85;0.98;;;;;;;;;;4687740;30;20517;-87
2023/09/21 12:57:52;;;;;;;1.15;0.70;;;;;;;;;;4674004;30;20056;-86
2023/09/21 13:00:18;;;;;;;1.13;0.80;;;;;;;;;;4687929;30;20045;-86
2023/09/21 13:02:44;;;;;;;0.70;0.70;;;;;;;;;;4688254;30;20143;-87
2023/09/21 13:05:13;;;;;;;0.70;0.70;;;;;;;;;;4702590;30;20512;-89
2023/09/21 13:07:40;;;;;;;0.77;0.70;;;;;;;;;;4688002;30;20052;-88
2023/09/21 13:10:11;;;;;;;0.80;0.80;;;16.50;1.00;;;;;;4702202;30;20057;-89
2023/09/21 13:12:37;;;;;;;1.00;0.70;;;;;;;;;;4702142;30;20049;-89
2023/09/21 13:15:04;;;;;;;2.28;0.82;;;16.50;6.70;;;;;;4687834;30;20057;-90
2023/09/21 13:17:31;;;;;;;1.33;0.70;;;;;;;;;;4687262;30;20088;-90
2023/09/21 13:19:57;;;;;;;0.80;0.80;;;;;;;;;;4687606;30;20434;-89
2023/09/21 13:22:24;;;;;;;1.35;1.13;;;;;;;;;;4687520;30;20057;-90
2023/09/21 13:24:50;;;;;;;1.00;0.70;;;;;;;;;;4701845;30;20049;-88
2023/09/21 13:27:17;;;;;;;0.80;0.80;;;;;;;;;;4717476;30;20060;-89
2023/09/21 13:29:45;;;;;;;1.10;1.00;;;;;;;;;;4687623;30;20091;-90
2023/09/21 13:32:11;;;;;;;0.70;0.70;;;;;;;;;;4687466;30;20503;-90
2023/09/21 13:34:38;;;;;;;1.33;0.75;;;;;;;;;;4688144;30;20519;-88
2023/09/21 13:37:04;;;;;;;2.38;0.85;;;;;;;;;;4687570;30;20144;-90
2023/09/21 13:39:31;;;;;;;1.73;1.20;;;;;;;;;;4687637;30;20062;-89
2023/09/21 13:41:58;;;;;;;1.63;1.08;;;;;;;;;;4687415;30;20060;-89
2023/09/21 13:44:24;;;;;;;1.00;0.73;;;;;;;;;;4687334;30;20056;-90
2023/09/21 13:46:57;;;;;;;1.15;0.70;;;16.60;1.00;;;;;;4701649;30;20053;-90
2023/09/21 13:49:25;;;;;;;1.08;0.90;;;;;;;;;;4687093;30;20514;-91
2023/09/21 13:51:52;;;;;;;2.80;0.88;;;;;;;;;;4673501;30;20458;-90
2023/09/21 13:54:18;;;;;;;1.92;0.70;;;;;;;;;;4687388;30;20187;-90
2023/09/21 13:56:44;;;;;;;1.20;0.80;;;;;;;;;;4687596;30;20076;-90
2023/09/21 13:59:10;;;;;;;0.65;0.63;;;;;;;;;;4688107;30;20057;-89
2023/09/21 14:01:36;;;;;;;1.45;0.90;;;;;;;;;;4687727;30;20053;-88
2023/09/21 14:04:03;;;;;;;0.73;0.70;;;;;;;;;;4701560;30;20511;-88
2023/09/21 14:06:29;;;;;;;1.20;0.68;;;;;;;;;;4701391;30;20121;-89
2023/09/21 14:08:56;;;;;;;0.88;0.88;;;;;;;;;;4687101;30;20101;-89
2023/09/21 14:11:22;;;;;;;0.80;0.80;;;;;;;;;;4672897;30;20148;-88
2023/09/21 14:13:48;;;;;;;1.27;0.82;;;;;;;;;;4687320;30;20140;-88
2023/09/21 14:16:15;;;;;;;0.88;0.77;;;;;;;;;;4672203;30;20064;-88
2023/09/21 14:18:41;;;;;;;1.05;0.90;;;;;;;;;;4687276;30;20488;-88
2023/09/21 14:21:08;;;;;;;1.58;1.05;;;;;;;;;;4673002;30;20111;-88
2023/09/21 14:23:37;;;;;;;1.75;0.77;;;;;;;;;;4672326;30;20053;-88
2023/09/21 14:26:04;;;;;;;1.60;0.77;;;;;;;;;;4672781;30;20072;-88
2023/09/21 14:28:36;;;;;;;0.80;0.80;;;;;;;;;;4687144;30;20147;-88